Time;durP1;ratioP1;P1;durP2;ratioP2;P2;SDS_P1;SDS_P2;PMS_P1;PMS_P2;Temp;Humidity;BMP_temperature;BMP_pressure;BME280_temperature;BME280_humidity;BME280_pressure;Samples;Min_cycle;Max_cycle;Signal;HPM_P1;HPM_P2
2023/07/21 00:00:45;;;;;;;6.35;3.92;;;;;;;12.91;84.33;100427.97;5029930;28;20018;-91
2023/07/21 00:03:11;;;;;;;5.13;3.40;;;;;;;12.94;83.84;100419.97;5032112;28;20183;-91
2023/07/21 00:05:37;;;;;;;5.78;3.90;;;;;;;12.94;84.46;100427.75;5014646;28;20587;-91
2023/07/21 00:08:03;;;;;;;4.20;3.55;;;;;;;12.96;85.48;100424.13;5032015;28;20076;-91
2023/07/21 00:10:29;;;;;;;4.10;3.25;;;;;;;12.79;85.65;100419.25;5010654;28;20162;-91
2023/07/21 00:12:54;;;;;;;5.70;3.22;;;;;;;12.70;85.78;100423.25;5027266;28;20215;-91
2023/07/21 00:15:20;;;;;;;4.80;2.88;;;;;;;12.67;87.09;100423.47;5047396;28;20413;-91
2023/07/21 00:17:47;;;;;;;3.20;2.58;;;;;;;12.65;88.01;100422.75;5032098;28;20474;-91
2023/07/21 00:20:18;;;;;;;4.25;2.72;;;;;;;12.68;87.89;100424.31;5030603;28;20037;-91
2023/07/21 00:22:44;;;;;;;5.00;3.15;;;;;;;12.65;87.70;100422.75;5043496;28;20021;-91
2023/07/21 00:25:10;;;;;;;4.60;2.97;;;;;;;12.63;88.38;100419.44;5029474;28;20026;-91
2023/07/21 00:27:38;;;;;;;5.10;3.33;;;;;;;12.56;88.30;100423.38;5031980;28;20052;-91
2023/07/21 00:30:07;;;;;;;3.63;2.63;;;;;;;12.51;88.70;100426.25;5031019;28;20061;-91
2023/07/21 00:32:32;;;;;;;5.13;3.28;;;;;;;12.52;88.69;100424.50;5013953;28;20037;-91
2023/07/21 00:34:57;;;;;;;4.55;3.47;;;;;;;12.47;88.34;100423.97;5031541;28;20023;-91
2023/07/21 00:37:23;;;;;;;4.97;3.85;;;;;;;12.41;88.77;100423.44;5031632;28;20079;-91
2023/07/21 00:39:48;;;;;;;7.88;4.50;;;;;;;12.42;88.87;100422.50;5031634;28;20025;-90
2023/07/21 00:42:13;;;;;;;6.80;4.75;;;;;;;12.43;89.47;100426.75;5030757;28;20025;-91
2023/07/21 00:44:39;;;;;;;9.07;4.80;;;;;;;12.45;88.79;100431.00;5031635;28;20056;-91
2023/07/21 00:47:05;;;;;;;7.25;4.82;;;;;;;12.44;89.29;100414.66;5031692;28;20030;-92
2023/07/21 00:49:32;;;;;;;8.50;5.40;;;;;;;12.42;89.65;100412.16;5031433;28;20025;-91
2023/07/21 00:51:57;;;;;;;12.55;5.97;;;;;;;12.49;88.71;100412.59;5030938;28;20033;-90
2023/07/21 00:54:23;;;;;;;8.18;4.53;;;;;;;12.41;89.13;100415.69;5031350;28;20028;-91
2023/07/21 00:56:48;;;;;;;8.82;5.95;;;;;;;12.36;88.33;100416.91;5013718;28;20056;-91
2023/07/21 00:59:14;;;;;;;11.00;5.22;;;;;;;12.35;88.23;100416.06;5031486;28;20033;-91
2023/07/21 01:01:39;;;;;;;6.82;4.95;;;;;;;12.38;87.79;100409.88;5030161;28;20026;-91
2023/07/21 01:04:05;;;;;;;7.47;4.80;;;;;;;12.31;88.35;100409.44;5033029;28;20395;-91
2023/07/21 01:06:31;;;;;;;7.13;4.95;;;;;;;12.21;88.61;100406.59;5035169;28;20364;-91
2023/07/21 01:08:58;;;;;;;5.70;4.00;;;;;;;12.18;89.93;100403.41;5017259;28;20071;-91
2023/07/21 01:11:25;;;;;;;4.80;3.72;;;;;;;12.28;89.08;100403.63;5034823;28;20029;-91
2023/07/21 01:13:55;;;;;;;7.70;5.00;;;;;;;12.22;88.61;100412.63;5035183;28;20059;-91
2023/07/21 01:16:25;;;;;;;6.85;4.30;;;;;;;12.23;89.48;100422.03;5035106;28;20029;-91
2023/07/21 01:18:53;;;;;;;5.72;4.05;;;;;;;12.15;89.69;100408.78;5017178;28;20025;-91
2023/07/21 01:21:46;;;;;;;5.07;3.83;;;;;;;12.13;90.52;100414.03;5034236;28;20387;-91
2023/07/21 01:24:44;;;;;;;4.80;3.90;;;;;;;12.11;90.78;100420.25;5034435;28;20064;-91
2023/07/21 01:27:12;;;;;;;9.50;4.22;;;;;;;12.03;92.17;100418.16;5031169;28;20077;-91
2023/07/21 01:29:41;;;;;;;5.57;4.28;;;;;;;11.99;92.36;100414.09;5034896;28;20040;-90
2023/07/21 01:32:09;;;;;;;5.20;4.32;;;;;;;11.96;92.22;100417.72;5034111;28;20079;-91
2023/07/21 01:34:36;;;;;;;9.55;4.45;;;;;;;11.97;92.41;100410.78;5034888;28;20585;-91
2023/07/21 01:37:02;;;;;;;5.95;4.10;;;;;;;11.96;92.65;100407.38;5034680;28;20422;-91
2023/07/21 01:39:30;;;;;;;7.20;4.00;;;;;;;11.93;92.93;100410.16;5034631;28;20425;-90
2023/07/21 01:41:56;;;;;;;5.40;3.92;;;;;;;11.77;93.03;100409.41;5016359;28;20026;-91
2023/07/21 01:44:22;;;;;;;6.13;4.10;;;;;;;11.81;93.64;100410.06;5034707;28;20022;-91
2023/07/21 01:46:48;;;;;;;5.70;3.90;;;;;;;11.74;93.70;100405.28;5016808;28;20033;-91
2023/07/21 01:49:15;;;;;;;7.00;4.05;;;;;;;11.69;94.01;100409.09;5034526;28;20030;-91
2023/07/21 01:51:42;;;;;;;6.68;4.00;;;;;;;11.63;94.05;100406.88;5048937;28;20072;-91
2023/07/21 01:54:14;;;;;;;7.30;3.97;;;;;;;11.64;94.67;100411.13;5032789;28;20025;-91
2023/07/21 01:56:46;;;;;;;5.18;3.67;;;;;;;11.54;94.53;100409.09;5025082;28;20021;-91
2023/07/21 01:59:14;;;;;;;6.10;4.07;;;;;;;11.55;95.35;100403.00;5034312;28;20026;-91
2023/07/21 02:01:40;;;;;;;7.20;4.78;;;;;;;11.62;92.81;100403.47;5032582;28;20033;-91
2023/07/21 02:04:05;;;;;;;7.05;4.28;;;;;;;11.54;90.72;100397.94;5049522;28;20022;-90
2023/07/21 02:06:32;;;;;;;6.70;4.97;;;;;;;11.46;91.27;100401.00;5016381;28;20036;-90
2023/07/21 02:08:57;;;;;;;7.95;5.50;;;;;;;11.47;91.03;100402.66;5033949;28;20029;-90
2023/07/21 02:11:24;;;;;;;5.90;4.78;;;;;;;11.43;91.13;100401.19;5033645;28;20025;-91
2023/07/21 02:13:50;;;;;;;6.85;5.18;;;;;;;11.38;90.43;100395.47;5033784;28;20383;-91
2023/07/21 02:16:15;;;;;;;7.20;5.35;;;;;;;11.37;90.88;100395.56;5033233;28;20022;-91
2023/07/21 02:18:42;;;;;;;8.55;5.90;;;;;;;11.28;91.31;100395.19;5034050;28;20022;-91
2023/07/21 02:21:07;;;;;;;7.50;5.25;;;;;;;11.23;91.61;100399.81;5033388;28;20495;-91
2023/07/21 02:23:32;;;;;;;6.43;5.05;;;;;;;11.18;91.89;100388.09;5015773;28;20112;-91
2023/07/21 02:25:58;;;;;;;8.38;5.30;;;;;;;11.16;92.48;100387.38;5049202;28;20018;-90
2023/07/21 02:28:24;;;;;;;7.75;5.15;;;;;;;11.12;93.03;100387.56;5033850;28;20507;-91
2023/07/21 02:31:02;;;;;;;9.00;5.22;;;;;;;11.09;93.64;100392.88;5033077;28;20034;-91
2023/07/21 02:33:29;;;;;;;9.18;5.35;;;;;;;11.09;94.17;100385.13;5015680;28;20052;-90
2023/07/21 02:35:54;;;;;;;7.53;5.00;;;;;;;11.07;94.38;100386.16;5015824;28;20497;-90
2023/07/21 02:38:20;;;;;;;8.85;5.75;;;;;;;11.05;94.28;100391.44;5016066;28;20055;-90
2023/07/21 02:40:46;;;;;;;7.28;5.32;;;;;;;10.99;94.45;100385.81;5033200;28;20076;-91
2023/07/21 02:43:12;;;;;;;7.35;5.55;;;;;;;10.96;94.93;100383.41;5033715;28;20013;-90
2023/07/21 02:45:38;;;;;;;9.95;6.32;;;;;;;10.92;95.50;100387.91;5033576;28;20026;-91
2023/07/21 02:48:06;;;;;;;7.15;5.35;;;;;;;10.92;95.67;100380.16;5033547;28;20109;-91
2023/07/21 02:50:33;;;;;;;7.55;4.70;;;;;;;10.89;95.98;100385.53;5032974;28;20017;-91
2023/07/21 02:52:58;;;;;;;7.75;5.82;;;;;;;10.93;94.70;100392.16;5015637;28;20026;-90
2023/07/21 02:55:24;;;;;;;9.13;5.93;;;;;;;10.96;94.08;100394.56;5015782;28;20025;-91
2023/07/21 02:57:49;;;;;;;9.20;5.13;;;;;;;10.88;94.15;100394.19;5033329;28;20099;-90
2023/07/21 03:00:15;;;;;;;8.13;6.07;;;;;;;10.87;95.24;100389.94;5033354;28;20045;-90
2023/07/21 03:02:42;;;;;;;6.45;5.28;;;;;;;10.79;94.82;100389.56;5046507;28;20022;-91
2023/07/21 03:05:08;;;;;;;7.82;5.60;;;;;;;10.72;94.82;100389.09;5048528;28;20025;-91
2023/07/21 03:07:34;;;;;;;6.40;5.32;;;;;;;10.69;94.66;100384.94;5033290;28;20147;-90
2023/07/21 03:10:00;;;;;;;7.80;5.40;;;;;;;10.69;94.91;100390.09;5032970;28;20116;-90
2023/07/21 03:12:25;;;;;;;9.25;5.10;;;;;;;10.65;95.07;100396.34;5014799;28;20029;-91
2023/07/21 03:14:51;;;;;;;8.20;5.90;;;;;;;10.59;95.62;100383.84;5032830;28;20018;-90
2023/07/21 03:17:16;;;;;;;7.20;5.18;;;;;;;10.59;95.71;100398.50;5033092;28;20049;-90
2023/07/21 03:19:42;;;;;;;9.63;5.18;;;;;;;10.56;95.57;100396.91;5033165;28;20022;-91
2023/07/21 03:22:07;;;;;;;8.52;5.65;;;;;;;10.64;94.06;100399.06;5014465;28;20530;-90
2023/07/21 03:24:34;;;;;;;8.75;5.75;;;;;;;10.63;93.99;100395.66;5032810;28;20025;-90
2023/07/21 03:27:00;;;;;;;8.57;5.90;;;;;;;10.50;94.30;100392.91;5015000;28;20415;-90
2023/07/21 03:29:25;;;;;;;8.02;5.90;;;;;;;10.43;94.81;100388.22;5032612;28;20025;-90
2023/07/21 03:31:50;;;;;;;8.52;6.13;;;;;;;10.41;96.01;100400.38;5032253;28;20036;-90
2023/07/21 03:34:16;;;;;;;8.32;6.10;;;;;;;10.41;96.18;100390.91;5032495;28;20464;-90
2023/07/21 03:36:41;;;;;;;9.23;6.00;;;;;;;10.37;97.30;100389.41;5032668;28;20095;-90
2023/07/21 03:39:06;;;;;;;11.50;6.78;;;;;;;10.43;97.58;100390.78;5032509;28;20053;-90
2023/07/21 03:41:32;;;;;;;10.00;6.57;;;;;;;10.45;97.95;100394.13;5014214;28;20032;-90
2023/07/21 03:43:58;;;;;;;10.63;6.93;;;;;;;10.44;97.88;100387.31;5030445;28;20034;-90
2023/07/21 03:46:24;;;;;;;10.80;7.00;;;;;;;10.37;97.25;100391.16;5015261;28;20112;-91
2023/07/21 03:48:50;;;;;;;8.18;6.32;;;;;;;10.33;97.97;100384.50;5032394;28;20494;-90
2023/07/21 03:51:15;;;;;;;10.02;6.70;;;;;;;10.32;97.98;100383.69;5031181;28;20029;-90
2023/07/21 03:53:41;;;;;;;8.80;6.13;;;;;;;10.26;98.25;100376.25;5047719;28;20103;-90
2023/07/21 03:56:06;;;;;;;12.20;7.00;;;;;;;10.24;98.79;100378.94;5032408;28;20021;-90
2023/07/21 03:58:32;;;;;;;8.52;6.28;;;;;;;10.25;98.76;100388.31;5032350;28;20108;-90
2023/07/21 04:01:00;;;;;;;8.77;6.15;;;;;;;10.20;98.28;100382.59;5031205;28;20049;-90
2023/07/21 04:03:26;;;;;;;8.63;5.78;;;;;;;10.18;98.31;100384.41;5032135;28;20091;-90
2023/07/21 04:05:52;;;;;;;9.30;5.57;;;;;;;10.17;98.63;100382.78;5032339;28;20602;-90
2023/07/21 04:08:18;;;;;;;8.05;6.10;;;;;;;10.18;97.48;100384.41;5032127;28;20060;-90
2023/07/21 04:10:44;;;;;;;10.60;6.22;;;;;;;10.12;98.10;100383.94;5031718;28;20033;-90
2023/07/21 04:13:09;;;;;;;11.43;6.95;;;;;;;10.11;98.08;100390.03;5031430;28;20368;-91
2023/07/21 04:15:35;;;;;;;9.82;6.13;;;;;;;9.86;97.87;100392.22;5031904;28;20022;-89
2023/07/21 04:18:01;;;;;;;15.27;6.63;;;;;;;9.98;98.06;100392.47;5032125;28;20053;-90
2023/07/21 04:20:28;;;;;;;12.20;6.75;;;;;;;10.05;96.88;100398.94;5031915;28;20441;-90
2023/07/21 04:22:54;;;;;;;10.40;6.18;;;;;;;10.11;96.09;100402.91;5046665;28;20052;-90
2023/07/21 04:25:20;;;;;;;9.02;6.75;;;;;;;10.05;96.45;100399.75;5032346;28;20483;-90
2023/07/21 04:27:50;;;;;;;11.85;6.60;;;;;;;10.04;97.52;100392.09;5032029;28;20105;-90
2023/07/21 04:30:15;;;;;;;8.70;6.65;;;;;;;10.04;97.59;100392.09;5031887;28;20037;-90
2023/07/21 04:32:41;;;;;;;8.85;6.80;;;;;;;10.07;97.00;100397.06;5013639;28;20033;-90
2023/07/21 04:35:08;;;;;;;10.43;6.70;;;;;;;10.10;96.35;100396.94;5032011;28;20075;-90
2023/07/21 04:37:34;;;;;;;9.65;6.38;;;;;;;10.09;96.95;100400.41;5031932;28;20025;-91
2023/07/21 04:40:00;;;;;;;9.55;6.40;;;;;;;10.08;97.13;100393.59;5035487;28;20154;-90
2023/07/21 04:42:26;;;;;;;11.20;6.90;;;;;;;10.07;97.65;100397.06;5035542;28;20471;-90
2023/07/21 04:44:52;;;;;;;9.38;6.30;;;;;;;10.03;99.02;100385.28;5036002;28;20040;-90
2023/07/21 04:47:17;;;;;;;9.75;6.68;;;;;;;10.09;99.53;100387.50;5035984;28;20112;-90
2023/07/21 04:49:43;;;;;;;10.73;6.70;;;;;;;10.12;99.38;100394.25;5035623;28;20029;-90
2023/07/21 04:52:08;;;;;;;8.70;6.80;;;;;;;10.15;99.55;100394.91;5035598;28;20502;-90
2023/07/21 04:54:34;;;;;;;11.98;6.22;;;;;;;10.17;99.90;100387.94;5035669;28;20531;-91
2023/07/21 04:56:59;;;;;;;8.85;5.95;;;;;;;10.15;99.82;100388.94;5017944;28;20021;-90
2023/07/21 04:59:25;;;;;;;9.38;6.65;;;;;;;10.16;99.94;100375.94;5035785;28;20021;-90
2023/07/21 05:01:50;;;;;;;9.55;6.70;;;;;;;10.24;99.09;100396.13;5034969;28;20032;-90
2023/07/21 05:04:16;;;;;;;9.15;6.30;;;;;;;10.29;98.59;100386.44;5035527;28;20036;-90
2023/07/21 05:06:43;;;;;;;10.88;7.53;;;;;;;10.31;98.20;100383.75;5035351;28;20033;-91
2023/07/21 05:09:09;;;;;;;12.60;7.28;;;;;;;10.36;98.10;100386.91;5017686;28;20083;-90
2023/07/21 05:11:35;;;;;;;11.38;6.97;;;;;;;10.35;97.85;100390.41;5049746;28;20026;-90
2023/07/21 05:14:03;;;;;;;11.32;6.57;;;;;;;10.41;98.20;100392.63;5050408;28;20026;-90
2023/07/21 05:16:29;;;;;;;9.73;6.70;;;;;;;10.44;99.07;100389.88;5035484;28;20029;-90
2023/07/21 05:18:54;;;;;;;11.60;6.35;;;;;;;10.50;98.96;100386.94;5050856;28;20034;-91
2023/07/21 05:21:19;;;;;;;10.13;6.78;;;;;;;10.53;99.19;100391.91;5034615;28;20063;-91
2023/07/21 05:23:45;;;;;;;9.25;6.97;;;;;;;10.58;99.84;100386.50;5050450;28;20029;-90
2023/07/21 05:26:11;;;;;;;13.25;7.70;;;;;;;10.58;99.65;100379.56;5035045;28;20034;-90
2023/07/21 05:28:36;;;;;;;11.02;7.00;;;;;;;10.63;99.82;100389.63;5034958;28;20030;-90
2023/07/21 05:31:03;;;;;;;11.52;7.13;;;;;;;10.69;100.00;100384.13;5034433;28;20475;-90
2023/07/21 05:33:29;;;;;;;11.60;7.63;;;;;;;10.79;100.00;100394.75;5016975;28;20087;-90
2023/07/21 05:36:04;;;;;;;9.27;6.75;;;;;;;10.89;100.00;100390.69;5034962;28;20049;-90
2023/07/21 05:38:31;;;;;;;11.60;7.57;;;;;;;10.97;100.00;100393.63;5050629;28;20052;-91
2023/07/21 05:40:57;;;;;;;9.40;6.70;;;;;;;11.08;100.00;100385.25;5034980;28;20060;-90
2023/07/21 05:43:22;;;;;;;11.55;7.85;;;;;;;11.18;100.00;100390.69;5032953;28;20032;-90
2023/07/21 05:45:48;;;;;;;11.75;7.30;;;;;;;11.22;100.00;100380.09;5036033;28;20033;-90
2023/07/21 05:48:13;;;;;;;12.02;7.60;;;;;;;11.29;100.00;100383.97;5034491;28;20022;-90
2023/07/21 05:50:38;;;;;;;10.57;7.43;;;;;;;11.39;100.00;100383.38;5030731;28;20028;-90
2023/07/21 05:53:04;;;;;;;11.85;6.85;;;;;;;11.48;100.00;100383.63;5034282;28;20112;-90
2023/07/21 05:55:30;;;;;;;9.98;6.95;;;;;;;11.59;100.00;100389.91;5015896;28;20103;-91
2023/07/21 05:57:55;;;;;;;9.50;6.90;;;;;;;11.65;100.00;100381.75;5016322;28;20040;-91
2023/07/21 06:00:20;;;;;;;11.15;7.80;;;;;;;11.75;99.87;100386.25;5016692;28;20026;-91
2023/07/21 06:02:46;;;;;;;11.40;7.25;;;;;;;11.85;100.00;100383.06;5033978;28;20397;-91
2023/07/21 06:05:12;;;;;;;10.48;7.25;;;;;;;11.99;99.04;100383.88;5015736;28;20124;-91
2023/07/21 06:07:42;;;;;;;12.85;7.53;;;;;;;12.16;97.10;100384.56;5033782;28;20033;-90
2023/07/21 06:10:08;;;;;;;10.80;7.72;;;;;;;12.32;96.94;100389.56;5033235;28;20056;-91
2023/07/21 06:12:33;;;;;;;10.30;7.18;;;;;;;12.51;97.02;100399.53;5034338;28;20021;-91
2023/07/21 06:14:59;;;;;;;12.23;7.10;;;;;;;12.75;96.50;100395.31;5032749;28;20029;-90
2023/07/21 06:17:25;;;;;;;10.93;7.63;;;;;;;13.03;95.03;100401.22;5016555;28;20033;-91
2023/07/21 06:19:50;;;;;;;10.23;6.53;;;;;;;13.34;93.08;100399.97;5033591;28;20025;-91
2023/07/21 06:22:15;;;;;;;12.95;7.55;;;;;;;13.54;90.64;100401.16;5033900;28;20025;-91
2023/07/21 06:24:41;;;;;;;12.27;6.60;;;;;;;13.75;88.04;100398.78;5031908;28;20025;-91
2023/07/21 06:27:07;;;;;;;8.50;6.72;;;;;;;13.98;85.04;100399.75;5032104;28;20514;-93
2023/07/21 06:29:33;;;;;;;9.77;6.72;;;;;;;14.06;82.96;100401.78;5016360;28;20041;-91
2023/07/21 06:31:59;;;;;;;8.80;6.43;;;;;;;14.28;80.82;100401.88;5038619;28;20028;-90
2023/07/21 06:34:24;;;;;;;9.38;7.25;;;;;;;14.60;77.17;100400.47;5058568;28;20371;-91
2023/07/21 06:36:50;;;;;;;10.23;6.38;;;;;;;15.06;77.70;100399.56;5014725;28;20450;-90
2023/07/21 06:39:15;;;;;;;10.75;7.13;;;;;;;15.00;77.90;100406.09;5037053;28;20029;-90
2023/07/21 06:41:40;;;;;;;8.98;6.55;;;;;;;14.82;77.99;100400.50;5033413;28;20112;-92
2023/07/21 06:44:06;;;;;;;9.43;7.03;;;;;;;14.83;76.88;100409.13;5032456;28;20026;-90
2023/07/21 06:46:31;;;;;;;9.15;6.53;;;;;;;14.60;78.84;100400.47;5012853;28;20061;-91
2023/07/21 06:48:58;;;;;;;10.38;6.50;;;;;;;14.52;79.56;100407.03;5031120;28;20049;-91
2023/07/21 06:51:23;;;;;;;8.95;6.03;;;;;;;14.60;79.88;100400.47;5031541;28;20546;-91
2023/07/21 06:53:49;;;;;;;7.93;6.00;;;;;;;14.87;78.91;100397.53;5031999;28;20026;-91
2023/07/21 06:56:15;;;;;;;8.27;6.18;;;;;;;14.88;75.47;100400.03;5013392;28;20033;-91
2023/07/21 06:58:42;;;;;;;10.23;6.75;;;;;;;14.91;74.25;100397.19;5013883;28;20030;-91
2023/07/21 07:01:09;;;;;;;14.65;6.60;;;;;;;15.12;75.97;100397.34;5012787;28;20430;-91
2023/07/21 07:03:34;;;;;;;10.40;6.05;;;;;;;16.60;70.03;100396.78;5030447;28;20457;-91
2023/07/21 07:05:59;;;;;;;10.70;6.55;;;;;;;17.72;63.47;100400.25;5032114;28;20101;-91
2023/07/21 07:08:25;;;;;;;8.70;6.15;;;;;;;17.59;64.93;100399.69;5031496;28;20025;-91
2023/07/21 07:10:51;;;;;;;12.18;6.07;;;;;;;19.09;60.22;100395.72;5013725;28;20508;-91
2023/07/21 07:13:16;;;;;;;7.90;5.10;;;;;;;19.36;57.09;100396.69;5030558;28;20018;-90
2023/07/21 07:15:47;;;;;;;9.98;5.60;;;;;;;18.62;60.68;100406.16;5030822;28;20037;-91
2023/07/21 07:18:12;;;;;;;11.52;6.60;;;;;;;18.80;59.70;100409.75;5032711;28;20463;-94
2023/07/21 07:20:38;;;;;;;8.98;5.40;;;;;;;18.23;60.63;100408.81;5030907;28;20026;-91
2023/07/21 07:23:03;;;;;;;9.00;5.55;;;;;;;18.02;61.64;100411.59;5030649;28;20049;-90
2023/07/21 07:25:29;;;;;;;7.43;5.82;;;;;;;18.10;62.03;100406.50;5030823;28;20535;-91
2023/07/21 07:27:55;;;;;;;8.93;5.80;;;;;;;18.11;62.10;100412.53;5029820;28;20030;-90
2023/07/21 07:30:20;;;;;;;8.80;6.25;;;;;;;17.93;63.25;100408.00;5030848;28;20035;-92
2023/07/21 07:32:46;;;;;;;10.05;5.60;;;;;;;17.85;63.40;100404.41;5029906;28;20026;-91
2023/07/21 07:35:12;;;;;;;10.60;6.30;;;;;;;18.01;64.04;100409.09;5030782;28;20017;-91
2023/07/21 07:37:37;;;;;;;9.50;6.32;;;;;;;17.63;63.38;100408.06;5031007;28;20040;-92
2023/07/21 07:40:05;;;;;;;15.73;6.25;;;;;;;17.44;64.78;100401.84;5013012;28;20017;-92
2023/07/21 07:42:30;;;;;;;10.93;5.80;;;;;;;17.71;65.69;100403.00;5030059;28;20025;-91
2023/07/21 07:44:59;;;;;;;7.97;5.80;;;;;;;18.33;63.24;100396.56;5030046;28;20033;-93
2023/07/21 07:47:25;;;;;;;10.38;6.13;;;;;;;18.21;64.25;100397.69;5011842;28;20120;-91
2023/07/21 07:49:50;;;;;;;10.30;6.20;;;;;;;18.25;63.32;100396.44;5029782;28;20112;-93
2023/07/21 07:52:17;;;;;;;12.93;6.57;;;;;;;18.51;63.63;100395.88;5030250;28;20414;-91
2023/07/21 07:54:43;;;;;;;10.15;6.75;;;;;;;18.59;61.42;100399.44;5030940;28;20454;-92
2023/07/21 07:57:08;;;;;;;9.35;6.05;;;;;;;18.86;62.15;100391.81;5029415;28;20036;-90
2023/07/21 07:59:34;;;;;;;11.10;6.47;;;;;;;18.80;62.16;100399.28;5030374;28;20025;-94
2023/07/21 08:01:59;;;;;;;9.52;5.80;;;;;;;18.57;62.36;100401.34;5031388;28;20574;-92
2023/07/21 08:04:25;;;;;;;16.15;6.30;;;;;;;18.71;62.15;100397.47;5029429;28;20080;-92
2023/07/21 08:06:50;;;;;;;10.90;6.22;;;;;;;18.59;63.03;100403.84;5013988;28;20026;-91
2023/07/21 08:09:16;;;;;;;7.53;5.68;;;;;;;18.66;63.16;100406.72;5031718;28;20037;-91
2023/07/21 08:11:41;;;;;;;9.07;6.00;;;;;;;19.50;62.18;100398.00;5031942;28;20025;-91
2023/07/21 08:14:07;;;;;;;14.13;7.28;;;;;;;19.34;60.09;100403.88;5031225;28;20083;-91
2023/07/21 08:16:33;;;;;;;13.80;5.75;;;;;;;19.66;61.08;100403.41;5032026;28;20052;-92
2023/07/21 08:18:59;;;;;;;10.25;6.60;;;;;;;20.08;59.02;100403.66;5032136;28;20025;-91
2023/07/21 08:21:27;;;;;;;11.93;6.07;;;;;;;20.01;59.44;100400.00;5034835;28;20074;-91
2023/07/21 08:23:54;;;;;;;9.85;6.03;;;;;;;19.74;60.18;100405.31;5031791;28;20017;-91
2023/07/21 08:26:19;;;;;;;9.57;5.80;;;;;;;19.66;61.22;100412.09;5034233;28;20021;-91
2023/07/21 08:28:45;;;;;;;7.57;6.05;;;;;;;20.40;60.08;100402.28;5035352;28;20442;-91
2023/07/21 08:31:11;;;;;;;10.90;5.68;;;;;;;20.44;59.20;100406.25;5031757;28;20022;-91
2023/07/21 08:33:37;;;;;;;14.02;6.25;;;;;;;20.36;59.92;100414.06;5031749;28;20063;-91
2023/07/21 08:36:03;;;;;;;12.30;5.50;;;;;;;20.90;57.08;100413.97;5031833;28;20473;-92
2023/07/21 08:38:29;;;;;;;8.65;6.07;;;;;;;20.92;56.12;100420.69;5031746;28;20049;-93
2023/07/21 08:41:07;;;;;;;6.38;5.03;;;;;;;21.65;55.01;100424.59;5047101;28;20383;-93
2023/07/21 08:43:33;;;;;;;11.07;5.65;;;;;;;21.63;54.61;100423.13;5031786;28;20025;-93
2023/07/21 08:46:02;;;;;;;6.55;4.28;;;;;;;21.12;54.35;100418.66;5014408;28;20032;-92
2023/07/21 08:48:29;;;;;;;5.85;3.47;;;;;;;21.40;53.30;100420.28;5014055;28;20052;-93
2023/07/21 08:50:55;;;;;;;11.45;5.60;;;;;;;21.93;52.38;100421.72;5032110;28;20084;-93
2023/07/21 08:53:24;;;;;;;7.47;4.65;;;;;;;22.16;53.05;100427.97;5032236;28;20499;-92
2023/07/21 08:55:58;;;;;;;7.15;4.43;;;;;;;22.48;50.60;100409.75;5013962;28;20129;-93
2023/07/21 08:58:24;;;;;;;8.55;4.35;;;;;;;23.50;48.96;100410.75;5031495;28;20083;-93
2023/07/21 09:00:52;;;;;;;9.20;4.18;;;;;;;23.72;48.75;100409.13;5031563;28;20097;-94
2023/07/21 09:03:25;;;;;;;5.03;3.90;;;;;;;23.79;46.29;100417.19;5013762;28;20025;-93
2023/07/21 09:05:51;;;;;;;7.90;3.85;;;;;;;23.47;47.73;100414.53;5014025;28;20470;-93
2023/07/21 09:08:21;;;;;;;6.97;4.32;;;;;;;23.95;45.63;100405.72;5031628;28;20048;-93
2023/07/21 09:10:47;;;;;;;9.80;4.00;;;;;;;24.81;44.93;100398.38;5036616;28;20021;-93
2023/07/21 09:13:17;;;;;;;10.02;4.00;;;;;;;24.89;43.41;100414.94;5024687;28;20505;-93
2023/07/21 09:15:52;;;;;;;11.50;5.43;;;;;;;24.75;44.06;100407.81;5044156;28;20124;-93
2023/07/21 09:18:17;;;;;;;6.00;3.78;;;;;;;24.46;44.93;100412.09;5046979;28;20025;-93
2023/07/21 09:20:45;;;;;;;5.65;3.10;;;;;;;24.51;44.79;100411.56;5032102;28;20037;-93
2023/07/21 09:23:10;;;;;;;4.07;2.72;;;;;;;24.29;45.33;100408.75;5036139;28;20102;-93
2023/07/21 09:25:47;;;;;;;20.40;4.10;;;;;;;24.68;44.06;100402.47;5034248;28;20471;-93
2023/07/21 09:28:12;;;;;;;4.75;3.75;;;;;;;25.11;43.27;100413.19;5034881;28;20013;-92
2023/07/21 09:30:50;;;;;;;3.88;2.42;;;;;;;25.38;42.10;100398.50;5034900;28;20111;-93
2023/07/21 09:33:20;;;;;;;3.00;2.10;;;;;;;25.26;42.99;100412.38;5042605;28;20391;-95
2023/07/21 09:35:46;;;;;;;7.97;2.40;;;;;;;25.58;41.00;100404.03;5042075;28;20032;-94
2023/07/21 09:38:12;;;;;;;4.47;2.58;;;;;;;25.62;42.43;100402.63;5038961;28;21861;-93
2023/07/21 09:40:44;;;;;;;7.47;3.28;;;;;;;25.14;41.87;100409.34;5023021;28;20048;-93
2023/07/21 09:43:10;;;;;;;4.05;1.70;;;;;;;24.00;43.68;100412.13;5034871;28;20104;-93
2023/07/21 09:45:36;;;;;;;2.72;2.08;;;;;;;24.90;42.60;100415.78;5021931;28;20545;-94
2023/07/21 09:48:02;;;;;;;3.15;1.80;;;;;;;25.37;42.01;100406.63;5035045;28;20085;-93
2023/07/21 09:50:27;;;;;;;3.33;1.98;;;;;;;24.09;42.96;100410.22;5025321;28;20117;-94
2023/07/21 09:52:53;;;;;;;5.10;1.70;;;;;;;23.95;43.35;100413.63;5022986;28;20037;-93
2023/07/21 09:55:22;;;;;;;3.15;1.30;;;;;;;24.66;43.03;100406.28;5022615;28;20075;-93
2023/07/21 09:57:49;;;;;;;2.08;1.27;;;;;;;25.06;41.66;100405.00;5048724;28;20029;-93
2023/07/21 10:00:16;;;;;;;4.97;2.45;;;;;;;24.93;42.13;100413.56;5034396;28;20044;-94
2023/07/21 10:02:55;;;;;;;2.80;1.42;;;;;;;26.03;41.11;100414.44;5016759;28;20025;-94
2023/07/21 10:05:20;;;;;;;6.45;1.50;;;;;;;25.87;39.73;100415.50;5029166;28;20033;-94
2023/07/21 10:07:48;;;;;;;6.15;1.52;;;;;;;26.37;38.82;100407.59;5041526;28;20491;-93
2023/07/21 10:10:16;;;;;;;2.75;1.08;;;;;;;25.82;39.30;100413.44;5021407;28;20486;-95
2023/07/21 10:12:49;;;;;;;1.83;1.15;;;;;;;26.18;39.17;100409.09;5031983;28;20032;-94
2023/07/21 10:15:29;;;;;;;3.30;1.90;;;;;;;26.99;38.00;100417.38;5035177;28;20018;-94
2023/07/21 10:18:02;;;;;;;3.08;0.90;;;;;;;26.05;38.82;100418.53;5034304;28;20502;-94
2023/07/21 10:20:44;;;;;;;1.80;1.10;;;;;;;26.54;38.93;100411.63;5024115;28;20029;-94
2023/07/21 10:23:14;;;;;;;3.70;1.42;;;;;;;27.09;37.40;100414.38;5033626;28;20076;-94
2023/07/21 10:25:52;;;;;;;3.65;1.20;;;;;;;26.85;38.13;100413.84;5032860;28;20390;-94
2023/07/21 10:28:44;;;;;;;1.80;1.20;;;;;;;25.69;39.10;100405.34;5033178;28;20025;-95
2023/07/21 10:31:22;;;;;;;2.58;1.42;;;;;;;24.55;40.93;100391.69;5032592;28;20029;-94
2023/07/21 10:34:13;;;;;;;2.60;1.40;;;;;;;25.61;41.03;100405.47;5033818;28;20021;-94
2023/07/21 10:36:39;;;;;;;;;;;;;;;25.26;40.35;100401.81;5027719;28;20029;-94
2023/07/21 10:39:10;;;;;;;4.18;1.23;;;;;;;25.18;40.53;100406.19;5032524;28;20015;-94
2023/07/21 10:41:36;;;;;;;1.55;1.00;;;;;;;26.07;39.48;100404.28;5032763;28;20029;-94
2023/07/21 10:44:05;;;;;;;5.68;2.05;;;;;;;25.79;40.04;100408.50;5034445;28;20383;-96
2023/07/21 10:46:35;;;;;;;4.45;1.70;;;;;;;25.59;40.84;100405.66;5033967;28;20029;-95
2023/07/21 10:49:00;;;;;;;1.80;1.25;;;;;;;25.54;39.88;100397.47;5033797;28;20063;-95
2023/07/21 10:51:26;;;;;;;2.95;0.98;;;;;;;25.49;40.10;100407.78;5032344;28;20467;-93
2023/07/21 10:53:51;;;;;;;1.95;1.00;;;;;;;25.15;41.52;100406.53;5033390;28;20032;-94
2023/07/21 10:56:16;;;;;;;3.67;1.38;;;;;;;24.38;41.57;100395.47;5032468;28;20044;-93
2023/07/21 10:58:42;;;;;;;1.92;1.00;;;;;;;24.58;41.90;100394.00;5032335;28;20545;-93
2023/07/21 11:01:08;;;;;;;1.60;1.25;;;;;;;24.38;42.33;100395.47;5033491;28;20109;-92
2023/07/21 11:03:33;;;;;;;6.47;1.20;;;;;;;23.89;41.51;100394.88;5032248;28;20144;-92
2023/07/21 11:05:58;;;;;;;5.05;1.20;;;;;;;23.65;41.97;100397.66;5033348;28;20030;-92
2023/07/21 11:08:29;;;;;;;1.95;1.10;;;;;;;23.33;42.91;100394.19;5033262;28;20439;-93
2023/07/21 11:10:54;;;;;;;1.85;1.08;;;;;;;22.37;44.23;100403.03;5033271;28;20021;-92
2023/07/21 11:13:23;;;;;;;2.10;1.40;;;;;;;22.76;43.99;100402.31;5033208;28;20079;-92
2023/07/21 11:15:54;;;;;;;1.98;0.93;;;;;;;22.96;44.00;100398.28;5033072;28;20021;-93
2023/07/21 11:18:21;;;;;;;1.35;0.88;;;;;;;22.55;44.58;100395.75;5033014;28;20096;-93
2023/07/21 11:20:51;;;;;;;4.15;1.05;;;;;;;22.85;43.95;100401.28;5033105;28;20025;-92